createdAt,value
2023-04-18T00:02:41.324Z,21.75
2023-04-18T00:05:29.059Z,21.35
2023-04-18T00:08:16.362Z,21.55
2023-04-18T00:11:07.144Z,21.27
2023-04-18T00:13:55.251Z,21.33
2023-04-18T00:16:44.676Z,20.70
2023-04-18T00:19:32.079Z,20.23
2023-04-18T00:22:22.922Z,20.60
2023-04-18T00:25:12.503Z,20.30
2023-04-18T00:28:02.159Z,19.67
2023-04-18T00:30:50.751Z,19.67
2023-04-18T00:33:37.756Z,19.45
2023-04-18T00:36:25.020Z,18.98
2023-04-18T00:39:11.864Z,18.97
2023-04-18T00:41:58.989Z,19.63
2023-04-18T00:44:46.087Z,19.58
2023-04-18T00:47:34.479Z,19.00
2023-04-18T00:50:21.989Z,19.10
2023-04-18T00:53:10.086Z,18.73
2023-04-18T00:55:57.494Z,18.75
2023-04-18T00:58:45.226Z,18.40
2023-04-18T01:01:33.790Z,19.00
2023-04-18T01:04:22.425Z,18.42
2023-04-18T01:07:11.880Z,18.83
2023-04-18T01:09:59.674Z,18.50
2023-04-18T01:12:49.676Z,18.05
2023-04-18T01:15:37.640Z,19.02
2023-04-18T01:18:24.491Z,18.30
2023-04-18T01:21:14.711Z,17.57
2023-04-18T01:24:13.312Z,17.90
2023-04-18T01:27:02.941Z,18.42
2023-04-18T01:29:50.456Z,18.27
2023-04-18T01:32:37.787Z,18.33
2023-04-18T01:35:25.385Z,18.42
2023-04-18T01:38:16.916Z,18.58
2023-04-18T01:41:08.374Z,18.08
2023-04-18T01:43:55.336Z,17.70
2023-04-18T01:46:42.535Z,18.30
2023-04-18T01:49:29.383Z,17.85
2023-04-18T01:52:17.711Z,18.30
2023-04-18T01:55:06.268Z,18.50
2023-04-18T01:57:57.667Z,17.85
2023-04-18T02:00:47.489Z,18.52
2023-04-18T02:03:34.980Z,18.25
2023-04-18T02:06:22.006Z,17.90
2023-04-18T02:09:09.049Z,18.13
2023-04-18T02:11:59.340Z,18.50
2023-04-18T02:14:52.295Z,18.92
2023-04-18T02:17:42.325Z,18.70
2023-04-18T02:20:33.669Z,18.83
2023-04-18T02:23:21.659Z,18.08
2023-04-18T02:26:08.496Z,17.73
2023-04-18T02:28:58.686Z,18.55
2023-04-18T02:31:47.094Z,18.85
2023-04-18T02:34:35.655Z,18.83
2023-04-18T02:37:23.309Z,18.58
2023-04-18T02:40:11.847Z,18.83
2023-04-18T02:42:59.294Z,18.10
2023-04-18T02:45:46.780Z,18.88
2023-04-18T02:48:37.823Z,18.17
2023-04-18T02:51:26.528Z,18.40
2023-04-18T02:54:18.504Z,17.95
2023-04-18T02:57:14.876Z,17.42
2023-04-18T03:00:11.829Z,18.20
2023-04-18T03:03:25.555Z,17.53
2023-04-18T03:06:20.814Z,18.17
2023-04-18T03:09:10.449Z,18.42
2023-04-18T03:12:04.161Z,18.08
2023-04-18T03:14:51.688Z,17.92
2023-04-18T03:17:40.314Z,18.02
2023-04-18T03:20:27.434Z,17.77
2023-04-18T03:23:15.628Z,17.53
2023-04-18T03:26:06.637Z,18.17
2023-04-18T03:28:55.449Z,17.00
2023-04-18T03:31:43.278Z,17.40
2023-04-18T03:34:31.103Z,18.27
2023-04-18T03:37:18.988Z,17.50
2023-04-18T03:40:13.676Z,17.67
2023-04-18T03:43:02.214Z,18.23
2023-04-18T03:45:52.407Z,18.83
2023-04-18T03:48:39.857Z,17.90
2023-04-18T03:51:34.941Z,17.60
2023-04-18T03:54:21.893Z,18.55
2023-04-18T03:57:11.175Z,17.70
2023-04-18T03:59:58.077Z,17.60
2023-04-18T04:02:45.475Z,17.63
2023-04-18T04:05:39.208Z,17.20
2023-04-18T04:08:28.131Z,17.17
2023-04-18T04:11:15.786Z,16.55
2023-04-18T04:14:04.353Z,16.38
2023-04-18T04:16:58.460Z,16.65
2023-04-18T04:19:45.830Z,17.50
2023-04-18T04:22:37.858Z,16.67
2023-04-18T04:25:28.610Z,16.73
2023-04-18T04:28:18.399Z,16.45
2023-04-18T04:31:13.925Z,16.80
2023-04-18T04:34:01.804Z,16.27
2023-04-18T04:36:49.531Z,16.52
2023-04-18T04:39:36.431Z,16.10
2023-04-18T04:42:49.363Z,16.60
2023-04-18T04:45:42.923Z,15.93
2023-04-18T04:48:31.550Z,17.25
2023-04-18T04:51:18.883Z,16.08
2023-04-18T04:54:06.178Z,15.77
2023-04-18T04:56:53.265Z,15.45
2023-04-18T04:59:40.153Z,16.00
2023-04-18T05:02:27.303Z,15.15
2023-04-18T05:05:21.276Z,15.43
2023-04-18T05:08:10.950Z,15.48
2023-04-18T05:10:58.706Z,15.25
2023-04-18T05:13:46.410Z,14.80
2023-04-18T05:16:33.554Z,14.70
2023-04-18T05:19:21.330Z,15.18
2023-04-18T05:22:10.081Z,15.30
2023-04-18T05:24:57.127Z,14.75
2023-04-18T05:27:44.825Z,14.50
2023-04-18T05:30:31.845Z,14.57
2023-04-18T05:33:19.622Z,15.18
2023-04-18T05:36:08.723Z,14.55
2023-04-18T05:38:57.825Z,14.10
2023-04-18T05:41:45.613Z,15.23
2023-04-18T05:44:33.218Z,14.10
2023-04-18T05:47:21.192Z,14.15
2023-04-18T05:50:09.624Z,14.43
2023-04-18T05:52:59.366Z,14.35
2023-04-18T05:55:48.914Z,13.68
2023-04-18T05:58:36.559Z,14.18
2023-04-18T06:01:24.211Z,13.25
2023-04-18T06:04:11.822Z,14.43
2023-04-18T06:06:59.553Z,14.15
2023-04-18T06:09:47.340Z,13.25
2023-04-18T06:12:36.553Z,13.33
2023-04-18T06:15:24.672Z,12.90
2023-04-18T06:18:12.669Z,13.15
2023-04-18T06:21:00.343Z,13.80
2023-04-18T06:23:48.350Z,12.48
2023-04-18T06:26:42.546Z,13.05
2023-04-18T06:29:33.320Z,12.98
2023-04-18T06:32:21.314Z,13.30
2023-04-18T06:35:09.261Z,13.32
2023-04-18T06:37:56.974Z,13.40
2023-04-18T06:40:44.826Z,12.68
2023-04-18T06:43:32.322Z,12.52
2023-04-18T06:46:22.078Z,12.60
2023-04-18T06:49:09.478Z,12.38
2023-04-18T06:51:56.944Z,12.68
2023-04-18T06:54:44.777Z,11.95
2023-04-18T06:57:31.876Z,12.20
2023-04-18T07:00:19.855Z,12.07
2023-04-18T07:03:11.453Z,12.25
2023-04-18T07:05:59.248Z,11.60
2023-04-18T07:08:46.782Z,12.35
2023-04-18T07:11:33.874Z,12.07
2023-04-18T07:14:22.020Z,12.63
2023-04-18T07:17:09.717Z,12.00
2023-04-18T07:19:59.303Z,12.40
2023-04-18T07:22:48.124Z,12.43
2023-04-18T07:25:35.347Z,11.27
2023-04-18T07:28:22.946Z,12.50
2023-04-18T07:31:11.766Z,11.77
2023-04-18T07:33:59.385Z,12.30
2023-04-18T07:36:48.862Z,12.02
2023-04-18T07:39:36.445Z,12.45
2023-04-18T07:42:24.283Z,11.88
2023-04-18T07:45:12.244Z,12.30
2023-04-18T07:47:59.772Z,12.90
2023-04-18T07:50:47.263Z,12.82
2023-04-18T07:53:36.719Z,13.13
2023-04-18T07:56:24.059Z,12.15
2023-04-18T07:59:12.483Z,12.57
2023-04-18T08:01:59.853Z,12.63
2023-04-18T08:04:50.047Z,12.35
2023-04-18T08:07:37.912Z,12.50
2023-04-18T08:10:26.763Z,13.00
2023-04-18T08:13:14.212Z,12.75
2023-04-18T08:16:03.034Z,12.60
2023-04-18T08:18:50.664Z,12.60
2023-04-18T08:21:39.197Z,13.07
2023-04-18T08:24:26.593Z,13.07
2023-04-18T08:27:15.729Z,12.50
2023-04-18T08:30:04.372Z,12.25
2023-04-18T08:32:51.707Z,13.32
2023-04-18T08:35:39.312Z,12.80
2023-04-18T08:38:27.381Z,12.65
2023-04-18T08:41:14.493Z,13.20
2023-04-18T08:44:03.596Z,13.05
2023-04-18T08:46:50.716Z,13.67
2023-04-18T08:49:38.268Z,13.05
2023-04-18T08:52:27.241Z,13.43
2023-04-18T08:55:15.297Z,13.00
2023-04-18T08:58:02.820Z,13.88
2023-04-18T09:00:53.226Z,13.40
2023-04-18T09:03:43.110Z,14.13
2023-04-18T09:06:30.646Z,14.73
2023-04-18T09:09:18.806Z,15.57
2023-04-18T09:12:08.426Z,15.73
2023-04-18T09:14:58.117Z,16.17
2023-04-18T09:17:51.021Z,15.93
2023-04-18T09:20:41.532Z,15.30
2023-04-18T09:23:28.873Z,16.57
2023-04-18T09:26:33.684Z,16.08
2023-04-18T09:29:23.126Z,16.40
2023-04-18T09:32:10.054Z,15.40
2023-04-18T09:35:04.041Z,15.32
2023-04-18T09:37:52.213Z,16.13
2023-04-18T09:40:39.538Z,15.03
2023-04-18T09:43:28.987Z,15.70
2023-04-18T09:46:17.734Z,16.05
2023-04-18T09:49:04.871Z,14.82
2023-04-18T09:51:55.733Z,15.55
2023-04-18T09:54:45.199Z,14.48
2023-04-18T09:57:34.898Z,13.70
2023-04-18T10:00:26.521Z,13.10
2023-04-18T10:03:17.618Z,12.65
2023-04-18T10:06:05.754Z,12.32
2023-04-18T10:08:56.227Z,12.20
2023-04-18T10:11:43.929Z,11.68
2023-04-18T10:14:34.410Z,11.93
2023-04-18T10:17:22.492Z,12.50
2023-04-18T10:20:11.266Z,12.23
2023-04-18T10:23:00.612Z,11.88
2023-04-18T10:25:53.223Z,11.80
2023-04-18T10:28:57.868Z,11.45
2023-04-18T10:31:48.489Z,12.20
2023-04-18T10:34:38.799Z,12.52
2023-04-18T10:37:27.899Z,12.95
2023-04-18T10:40:15.812Z,13.10
2023-04-18T10:43:06.627Z,13.57
2023-04-18T10:46:24.209Z,13.18
2023-04-18T10:49:17.276Z,12.68
2023-04-18T10:52:06.091Z,12.63
2023-04-18T10:54:58.910Z,11.70
2023-04-18T10:57:47.874Z,11.55
2023-04-18T11:00:37.013Z,11.63
2023-04-18T11:03:34.012Z,11.15
2023-04-18T11:06:22.664Z,11.17
2023-04-18T11:09:11.658Z,10.57
2023-04-18T11:12:07.697Z,11.00
2023-04-18T11:14:55.257Z,11.40
2023-04-18T11:17:44.806Z,11.57
2023-04-18T11:20:40.949Z,11.63
2023-04-18T11:23:29.085Z,11.07
2023-04-18T11:26:19.733Z,11.15
2023-04-18T11:29:07.854Z,10.48
2023-04-18T11:31:58.570Z,10.32
2023-04-18T11:34:47.719Z,10.43
2023-04-18T11:37:36.684Z,9.85
2023-04-18T11:40:24.448Z,9.53
2023-04-18T11:43:11.731Z,9.88
2023-04-18T11:46:00.673Z,9.77
2023-04-18T11:48:48.043Z,9.18
2023-04-18T11:51:38.753Z,9.00
2023-04-18T11:54:41.226Z,8.83
2023-04-18T11:57:30.401Z,8.30
2023-04-18T12:00:19.728Z,8.57
2023-04-18T12:03:11.871Z,8.10
2023-04-18T12:06:01.678Z,8.63
2023-04-18T12:08:52.361Z,7.47
2023-04-18T12:11:42.540Z,7.43
2023-04-18T12:14:30.196Z,7.63
2023-04-18T12:17:17.899Z,7.50
2023-04-18T12:20:08.046Z,7.60
2023-04-18T12:22:55.643Z,7.20
2023-04-18T12:25:44.762Z,7.25
2023-04-18T12:28:33.295Z,7.25
2023-04-18T12:31:21.604Z,7.22
2023-04-18T12:34:09.337Z,7.10
2023-04-18T12:36:57.130Z,7.30
2023-04-18T12:39:44.439Z,7.35
2023-04-18T12:42:33.695Z,7.28
2023-04-18T12:45:23.746Z,7.30
2023-04-18T12:48:11.336Z,8.13
2023-04-18T12:50:58.662Z,8.15
2023-04-18T12:53:46.324Z,8.63
2023-04-18T12:56:33.455Z,9.07
2023-04-18T12:59:22.525Z,9.60
2023-04-18T13:02:10.568Z,11.35
2023-04-18T13:04:58.588Z,11.18
2023-04-18T13:07:47.433Z,11.88
2023-04-18T13:10:35.001Z,11.97
2023-04-18T13:13:22.485Z,12.38
2023-04-18T13:16:11.855Z,12.50
2023-04-18T13:18:59.054Z,13.23
2023-04-18T13:21:48.430Z,12.57
2023-04-18T13:24:37.087Z,12.10
2023-04-18T13:27:24.306Z,11.48
2023-04-18T13:30:12.552Z,10.45
2023-04-18T13:33:01.550Z,10.80
2023-04-18T13:35:48.555Z,10.45
2023-04-18T13:38:35.842Z,10.52
2023-04-18T13:41:24.298Z,10.10
2023-04-18T13:44:12.365Z,10.65
2023-04-18T13:46:59.452Z,10.65
2023-04-18T13:49:48.506Z,10.65
2023-04-18T13:52:36.378Z,10.37
2023-04-18T13:55:24.300Z,10.37
2023-04-18T13:58:12.038Z,10.70
2023-04-18T14:00:59.308Z,10.43
2023-04-18T14:03:47.802Z,10.80
2023-04-18T14:06:36.702Z,11.10
2023-04-18T14:09:24.902Z,11.60
2023-04-18T14:12:12.294Z,12.10
2023-04-18T14:14:59.862Z,11.65
2023-04-18T14:17:47.520Z,12.40
2023-04-18T14:20:35.298Z,12.73
2023-04-18T14:23:26.102Z,11.63
2023-04-18T14:26:13.523Z,12.30
2023-04-18T14:29:00.680Z,12.18
2023-04-18T14:31:48.464Z,11.80
2023-04-18T14:34:36.756Z,12.73
2023-04-18T14:37:25.401Z,12.53
2023-04-18T14:40:14.186Z,12.50
2023-04-18T14:43:01.754Z,12.50
2023-04-18T14:45:48.976Z,13.40
2023-04-18T14:48:36.587Z,13.20
2023-04-18T14:51:24.805Z,12.80
2023-04-18T14:54:11.839Z,12.80
2023-04-18T14:57:01.205Z,13.05
2023-04-18T14:59:48.450Z,13.13
2023-04-18T15:02:35.819Z,13.98
2023-04-18T15:05:24.627Z,14.20
2023-04-18T15:08:11.943Z,13.57
2023-04-18T15:10:59.117Z,13.60
2023-04-18T15:13:47.756Z,13.25
2023-04-18T15:16:35.461Z,13.98
2023-04-18T15:19:22.778Z,14.38
2023-04-18T15:22:10.851Z,14.67
2023-04-18T15:24:58.709Z,14.33
2023-04-18T15:27:45.927Z,14.40
2023-04-18T15:30:35.031Z,14.40
2023-04-18T15:33:25.150Z,13.57
2023-04-18T15:36:12.972Z,14.47
2023-04-18T15:39:00.701Z,15.13
2023-04-18T15:41:48.409Z,15.18
2023-04-18T15:44:35.778Z,15.05
2023-04-18T15:47:23.963Z,14.65
2023-04-18T15:50:11.311Z,13.63
2023-04-18T15:52:58.385Z,13.75
2023-04-18T15:55:46.639Z,13.90
2023-04-18T15:58:33.830Z,14.10
2023-04-18T16:01:20.991Z,15.13
2023-04-18T16:04:09.844Z,15.40
2023-04-18T16:06:57.105Z,15.30
2023-04-18T16:09:43.763Z,15.32
2023-04-18T16:12:31.650Z,14.63
2023-04-18T16:15:19.466Z,14.77
2023-04-18T16:18:07.132Z,14.95
2023-04-18T16:20:56.339Z,13.73
2023-04-18T16:23:44.009Z,14.07
2023-04-18T16:26:31.029Z,15.43
2023-04-18T16:29:18.017Z,15.75
2023-04-18T16:32:08.393Z,15.90
2023-04-18T16:34:55.448Z,15.93
2023-04-18T16:37:44.610Z,16.55
2023-04-18T16:40:32.124Z,16.85
2023-04-18T16:43:20.064Z,17.60
2023-04-18T16:46:07.180Z,17.08
2023-04-18T16:48:55.708Z,17.23
2023-04-18T16:51:43.376Z,17.10
2023-04-18T16:54:32.976Z,16.27
2023-04-18T16:57:20.533Z,17.17
2023-04-18T17:00:10.311Z,18.27
2023-04-18T17:02:58.350Z,18.33
2023-04-18T17:05:46.494Z,17.95
2023-04-18T17:08:33.896Z,18.08
2023-04-18T17:11:22.666Z,18.50
2023-04-18T17:14:10.224Z,17.57
2023-04-18T17:16:57.522Z,17.98
2023-04-18T17:19:46.004Z,17.98
2023-04-18T17:22:33.936Z,17.95
2023-04-18T17:25:22.843Z,17.98
2023-04-18T17:28:11.916Z,17.48
2023-04-18T17:31:01.855Z,18.48
2023-04-18T17:33:50.590Z,18.55
2023-04-18T17:36:37.784Z,18.73
2023-04-18T17:39:27.246Z,18.70
2023-04-18T17:42:14.643Z,18.63
2023-04-18T17:45:04.601Z,18.70
2023-04-18T17:47:52.200Z,19.60
2023-04-18T17:50:39.567Z,19.60
2023-04-18T17:53:27.336Z,20.17
2023-04-18T17:56:15.020Z,21.35
2023-04-18T17:59:02.578Z,20.58
2023-04-18T18:01:50.938Z,21.58
2023-04-18T18:04:39.473Z,21.98
2023-04-18T18:07:26.943Z,21.52
2023-04-18T18:10:18.849Z,21.30
2023-04-18T18:13:06.538Z,22.83
2023-04-18T18:15:54.275Z,22.52
2023-04-18T18:18:49.544Z,23.60
2023-04-18T18:21:37.083Z,24.27
2023-04-18T18:24:26.231Z,24.10
2023-04-18T18:27:14.024Z,24.52
2023-04-18T18:30:01.282Z,25.27
2023-04-18T18:32:49.535Z,25.88
2023-04-18T18:35:38.303Z,26.13
2023-04-18T18:38:25.325Z,26.83
2023-04-18T18:41:12.377Z,28.98
2023-04-18T18:43:59.380Z,27.40
2023-04-18T18:46:46.387Z,26.10
2023-04-18T18:49:33.884Z,26.27
2023-04-18T18:52:24.154Z,24.20
2023-04-18T18:55:12.036Z,24.88
2023-04-18T18:57:59.608Z,24.90
2023-04-18T19:00:48.241Z,24.98
2023-04-18T19:03:38.571Z,24.40
2023-04-18T19:06:26.592Z,24.15
2023-04-18T19:09:15.579Z,24.45
2023-04-18T19:12:04.158Z,25.10
2023-04-18T19:14:51.934Z,23.85
2023-04-18T19:17:39.139Z,23.95
2023-04-18T19:20:28.796Z,24.13
2023-04-18T19:23:19.302Z,24.08
2023-04-18T19:26:08.323Z,23.80
2023-04-18T19:28:55.990Z,23.95
2023-04-18T19:31:44.111Z,24.20
2023-04-18T19:34:31.562Z,25.08
2023-04-18T19:37:19.043Z,24.58
2023-04-18T19:40:07.833Z,24.80
2023-04-18T19:42:57.237Z,25.08
2023-04-18T19:45:44.692Z,24.90
2023-04-18T19:48:32.367Z,25.75
2023-04-18T19:51:19.984Z,25.07
2023-04-18T19:54:07.518Z,24.80
2023-04-18T19:56:54.831Z,25.50
2023-04-18T19:59:43.404Z,25.08
2023-04-18T20:02:31.181Z,24.63
2023-04-18T20:05:19.682Z,25.05
2023-04-18T20:08:07.460Z,25.15
2023-04-18T20:10:55.188Z,24.80
2023-04-18T20:13:42.805Z,25.70
2023-04-18T20:16:31.836Z,25.17
2023-04-18T20:19:19.552Z,24.90
2023-04-18T20:22:07.357Z,24.23
2023-04-18T20:24:57.236Z,24.65
2023-04-18T20:27:44.793Z,24.52
2023-04-18T20:30:32.625Z,25.20
2023-04-18T20:33:22.362Z,24.65
2023-04-18T20:36:09.366Z,24.33
2023-04-18T20:38:57.144Z,25.25
2023-04-18T20:41:46.562Z,24.08
2023-04-18T20:44:34.686Z,25.02
2023-04-18T20:47:22.306Z,24.58
2023-04-18T20:50:14.077Z,24.65
2023-04-18T20:53:02.219Z,24.27
2023-04-18T20:55:49.963Z,24.90
2023-04-18T20:58:37.549Z,24.30
2023-04-18T21:01:25.019Z,23.77
2023-04-18T21:04:12.777Z,23.87
2023-04-18T21:07:01.298Z,23.88
2023-04-18T21:09:48.799Z,23.45
2023-04-18T21:12:36.384Z,24.33
2023-04-18T21:15:24.222Z,24.00
2023-04-18T21:18:11.237Z,23.75
2023-04-18T21:20:59.087Z,23.77
2023-04-18T21:23:47.615Z,23.50
2023-04-18T21:26:34.703Z,23.67
2023-04-18T21:29:22.370Z,23.33
2023-04-18T21:32:09.622Z,24.00
2023-04-18T21:34:57.909Z,23.67
2023-04-18T21:37:45.422Z,23.63
2023-04-18T21:40:34.421Z,23.73
2023-04-18T21:43:21.798Z,23.43
2023-04-18T21:46:11.536Z,24.77
2023-04-18T21:48:58.954Z,24.35
2023-04-18T21:51:46.100Z,24.67
2023-04-18T21:54:33.577Z,24.42
2023-04-18T21:57:22.160Z,24.08
2023-04-18T22:00:11.310Z,24.30
2023-04-18T22:03:00.161Z,23.60
2023-04-18T22:05:47.725Z,23.73
2023-04-18T22:08:36.013Z,23.80
2023-04-18T22:11:24.478Z,24.57
2023-04-18T22:14:14.989Z,24.20
2023-04-18T22:17:03.345Z,24.23
2023-04-18T22:19:50.858Z,24.07
2023-04-18T22:22:38.312Z,24.58
2023-04-18T22:25:26.042Z,24.60
2023-04-18T22:28:13.707Z,24.83
2023-04-18T22:31:02.802Z,25.48
2023-04-18T22:33:50.119Z,24.45
2023-04-18T22:36:37.624Z,24.77
2023-04-18T22:39:26.371Z,25.00
2023-04-18T22:42:13.642Z,24.88
2023-04-18T22:45:01.512Z,24.83
2023-04-18T22:47:50.196Z,25.27
2023-04-18T22:50:37.892Z,25.77
2023-04-18T22:53:25.748Z,25.08
2023-04-18T22:56:12.849Z,26.15
2023-04-18T22:59:00.066Z,25.40
2023-04-18T23:01:47.288Z,26.10
2023-04-18T23:04:36.436Z,26.02
2023-04-18T23:07:24.160Z,25.80
2023-04-18T23:10:12.032Z,26.70
2023-04-18T23:12:58.766Z,26.23
2023-04-18T23:15:46.100Z,26.53
2023-04-18T23:18:33.372Z,26.48
2023-04-18T23:21:22.420Z,26.10
2023-04-18T23:24:10.834Z,26.67
2023-04-18T23:26:58.507Z,27.27
2023-04-18T23:29:48.231Z,26.97
2023-04-18T23:32:35.879Z,26.50
2023-04-18T23:35:22.693Z,26.93
2023-04-18T23:38:11.133Z,26.98
2023-04-18T23:40:58.254Z,26.42
2023-04-18T23:43:45.996Z,27.40
2023-04-18T23:46:35.058Z,26.33
2023-04-18T23:49:23.336Z,26.23
2023-04-18T23:52:11.139Z,26.50
2023-04-18T23:55:02.165Z,26.08
2023-04-18T23:57:49.114Z,26.13
